East Winnfield, Louisiana
Current Conditions -  °F | °C
As of 1:55 AM on Friday 31 Oct 2014 (Local Time) from KIER Reporting Station
Clear Clear  
Wind Chill: 48°   Ceiling: Unl
Heat Index: 48°   Visibility: 10mi
Dew Point: 48°   Wind: 0mph
Humidity: 99%   Direction: NA
Pressure: 30.09"   Gusts: NA
Location:  31.9379°N, 92.5858°W
Report Text: KIER 310655Z AUTO 00000KT 10SM CLR 09/09 A3009 RMK AO2 T00890087
Loading
Personal Weather Stations






























Interactive Weather Map
Tropical Storm Tracking
New forecast layout! Learn more

10-Day Weather Forecast

Advertisements
Track Severe Weather on mobile